Time;durP1;ratioP1;P1;durP2;ratioP2;P2;SDS_P1;SDS_P2;PMS_P1;PMS_P2;Temp;Humidity;BMP_temperature;BMP_pressure;BME280_temperature;BME280_humidity;BME280_pressure;Samples;Min_cycle;Max_cycle;Signal;HPM_P1;HPM_P2
2021/05/08 00:00:42;;;;;;;6.00;5.40;;;;;;;5.67;76.46;99635.22;5095979;28;20219;-71
2021/05/08 00:03:09;;;;;;;6.70;6.10;;;;;;;5.65;76.62;99634.41;5095370;28;20677;-72
2021/05/08 00:05:36;;;;;;;6.70;5.90;;;;;;;5.56;77.16;99635.66;5095159;28;20211;-73
2021/05/08 00:08:02;;;;;;;7.22;6.53;;;;;;;5.47;77.85;99635.09;5095480;28;20183;-73
2021/05/08 00:10:28;;;;;;;7.78;6.50;;;;;;;5.49;78.05;99627.91;5095495;28;20685;-72
2021/05/08 00:12:54;;;;;;;8.15;7.45;;;;;;;5.36;78.89;99632.81;5095170;28;20200;-71
2021/05/08 00:15:21;;;;;;;9.00;7.70;;;;;;;5.41;78.93;99633.53;5094931;28;20289;-73
2021/05/08 00:17:47;;;;;;;7.93;7.13;;;;;;;5.31;79.18;99627.63;5095213;28;20642;-73
2021/05/08 00:20:17;;;;;;;8.63;7.80;;;;;;;5.31;79.54;99629.44;5095100;28;20197;-72
2021/05/08 00:22:43;;;;;;;9.98;6.90;;;;;;;5.27;79.56;99626.03;5095136;28;20209;-73
2021/05/08 00:25:11;;;;;;;10.05;7.40;;;;;;;5.31;79.41;99618.75;5094964;28;20191;-73
2021/05/08 00:27:37;;;;;;;8.98;7.85;;;;;;;5.23;79.57;99627.06;5095117;28;20260;-73
2021/05/08 00:30:04;;;;;;;8.07;6.80;;;;;;;5.15;79.93;99629.97;5094847;28;20227;-73
2021/05/08 00:32:31;;;;;;;7.95;7.25;;;;;;;5.01;80.56;99626.94;5094816;28;20203;-73
2021/05/08 00:34:57;;;;;;;8.68;7.38;;;;;;;4.96;81.06;99623.56;5094359;28;20195;-73
2021/05/08 00:37:24;;;;;;;10.68;7.63;;;;;;;5.00;80.92;99619.88;5094980;28;20598;-73
2021/05/08 00:39:50;;;;;;;8.55;7.65;;;;;;;4.98;80.95;99616.38;5094674;28;20610;-74
2021/05/08 00:42:17;;;;;;;6.60;6.00;;;;;;;5.01;80.78;99611.78;5093585;28;20226;-72
2021/05/08 00:44:43;;;;;;;7.43;6.40;;;;;;;5.15;80.33;99600.63;5094194;28;20198;-72
2021/05/08 00:47:11;;;;;;;9.75;6.90;;;;;;;4.96;80.61;99612.88;5094401;28;20220;-73
2021/05/08 00:49:37;;;;;;;7.72;6.90;;;;;;;4.88;81.02;99610.47;5094158;28;20193;-73
2021/05/08 00:52:05;;;;;;;8.88;6.95;;;;;;;4.94;80.99;99609.41;5094343;28;20292;-74
2021/05/08 00:54:32;;;;;;;8.20;7.38;;;;;;;4.94;80.91;99609.41;5095000;28;20610;-71
2021/05/08 00:56:59;;;;;;;8.57;7.68;;;;;;;4.73;81.71;99608.34;5094512;28;20252;-72
2021/05/08 00:59:25;;;;;;;8.27;7.47;;;;;;;4.74;82.33;99608.28;5094650;28;20281;-74
2021/05/08 01:01:51;;;;;;;8.50;7.65;;;;;;;4.78;82.20;99604.59;5094088;28;20346;-73
2021/05/08 01:04:18;;;;;;;10.75;7.70;;;;;;;4.88;81.61;99606.94;5094098;28;20244;-74
2021/05/08 01:06:44;;;;;;;7.80;6.78;;;;;;;4.66;82.18;99599.69;5093960;28;20255;-72
2021/05/08 01:09:10;;;;;;;7.80;6.97;;;;;;;4.68;82.05;99600.50;5094397;28;20623;-73
2021/05/08 01:11:38;;;;;;;18.40;11.73;;;;;;;4.77;82.09;99592.19;5094204;28;20225;-72
2021/05/08 01:14:04;;;;;;;8.93;7.57;;;;;;;4.66;82.27;99598.78;5094118;28;20292;-73
2021/05/08 01:16:31;;;;;;;9.30;7.93;;;;;;;4.52;82.97;99591.25;5094323;28;20591;-73
2021/05/08 01:18:57;;;;;;;10.00;8.30;;;;;;;4.58;82.90;99597.25;5093849;28;20217;-72
2021/05/08 01:21:24;;;;;;;11.25;9.15;;;;;;;4.58;82.66;99599.06;5094258;28;20674;-72
2021/05/08 01:23:51;;;;;;;8.73;7.78;;;;;;;4.50;83.08;99590.44;5094363;28;20216;-71
2021/05/08 01:26:18;;;;;;;8.93;7.55;;;;;;;4.42;83.62;99590.69;5093679;28;20207;-71
2021/05/08 01:28:46;;;;;;;7.93;7.13;;;;;;;4.50;83.49;99582.44;5093589;28;20183;-74
2021/05/08 01:31:13;;;;;;;10.85;7.25;;;;;;;4.63;83.03;99586.44;5093443;28;20198;-72
2021/05/08 01:33:41;;;;;;;8.38;7.65;;;;;;;4.66;82.69;99591.69;5094172;28;20185;-73
2021/05/08 01:36:07;;;;;;;10.27;8.35;;;;;;;4.63;82.47;99589.09;5093431;28;20219;-72
2021/05/08 01:38:34;;;;;;;10.80;7.80;;;;;;;4.79;82.23;99592.13;5093895;28;20233;-72
2021/05/08 01:41:02;;;;;;;9.45;8.45;;;;;;;4.89;81.36;99587.34;5093510;28;20321;-72
2021/05/08 01:43:28;;;;;;;8.75;7.85;;;;;;;4.71;81.99;99578.19;5094142;28;20190;-73
2021/05/08 01:45:55;;;;;;;8.70;7.80;;;;;;;4.81;81.57;99582.25;5093557;28;20296;-72
2021/05/08 01:48:21;;;;;;;10.68;8.27;;;;;;;4.77;81.39;99576.19;5093849;28;20289;-73
2021/05/08 01:50:48;;;;;;;9.70;8.80;;;;;;;4.48;82.81;99576.31;5093556;28;20239;-71
2021/05/08 01:53:14;;;;;;;10.25;8.50;;;;;;;4.52;82.50;99580.59;5093717;28;20289;-74
2021/05/08 01:55:41;;;;;;;9.57;8.48;;;;;;;4.42;83.41;99585.38;5093808;28;20551;-72
2021/05/08 01:58:07;;;;;;;9.93;8.00;;;;;;;4.21;84.31;99586.94;5093442;28;20633;-71
2021/05/08 02:00:35;;;;;;;8.77;7.78;;;;;;;4.18;84.76;99587.03;5093359;28;20273;-71
2021/05/08 02:03:02;;;;;;;8.80;7.90;;;;;;;4.30;84.32;99577.78;5093490;28;20295;-72
2021/05/08 02:05:32;;;;;;;9.63;7.97;;;;;;;4.19;84.13;99580.78;5093711;28;20188;-72
2021/05/08 02:08:03;;;;;;;8.98;8.05;;;;;;;4.14;84.59;99586.28;5093081;28;20240;-73
2021/05/08 02:10:30;;;;;;;9.32;8.00;;;;;;;4.12;84.81;99588.13;5093889;28;20211;-73
2021/05/08 02:12:57;;;;;;;11.85;8.15;;;;;;;4.21;84.47;99584.28;5093278;28;20197;-72
2021/05/08 02:15:24;;;;;;;10.43;8.13;;;;;;;4.23;83.90;99579.78;5092673;28;20214;-71
2021/05/08 02:17:50;;;;;;;8.63;7.63;;;;;;;4.16;84.20;99583.53;5092920;28;20216;-72
2021/05/08 02:20:21;;;;;;;8.80;7.93;;;;;;;4.21;84.12;99576.28;5092761;28;20216;-72
2021/05/08 02:22:47;;;;;;;9.00;7.60;;;;;;;4.21;83.79;99580.75;5092723;28;20254;-72
2021/05/08 02:25:14;;;;;;;9.68;8.25;;;;;;;4.14;84.05;99577.41;5092938;28;20313;-73
2021/05/08 02:27:41;;;;;;;8.50;6.28;;;;;;;4.20;83.76;99577.19;5092951;28;20204;-72
2021/05/08 02:30:11;;;;;;;10.98;7.97;;;;;;;4.11;84.10;99578.34;5093265;28;20649;-73
2021/05/08 02:32:37;;;;;;;9.60;7.65;;;;;;;3.95;84.89;99577.97;5093004;28;20276;-73
2021/05/08 02:35:05;;;;;;;8.93;8.02;;;;;;;3.99;84.55;99578.75;5092639;28;20270;-73
2021/05/08 02:37:31;;;;;;;10.80;8.05;;;;;;;4.07;83.97;99582.06;5092637;28;20235;-73
2021/05/08 02:39:57;;;;;;;8.90;7.28;;;;;;;3.85;85.13;99581.88;5092735;28;20204;-71
2021/05/08 02:42:24;;;;;;;9.05;7.90;;;;;;;3.86;85.13;99575.59;5092570;28;20195;-74
2021/05/08 02:44:50;;;;;;;9.48;7.32;;;;;;;3.91;85.36;99573.69;5092383;28;20202;-73
2021/05/08 02:47:20;;;;;;;7.43;6.55;;;;;;;3.84;84.85;99566.78;5091660;28;20199;-73
2021/05/08 02:49:46;;;;;;;8.90;7.20;;;;;;;3.85;85.51;99576.53;5092368;28;20264;-73
2021/05/08 02:52:13;;;;;;;8.77;7.90;;;;;;;3.88;84.90;99573.75;5092185;28;20196;-73
2021/05/08 02:54:39;;;;;;;9.30;7.00;;;;;;;4.14;84.09;99577.41;5092245;28;20276;-73
2021/05/08 02:57:05;;;;;;;14.23;7.13;;;;;;;4.02;84.29;99583.13;5092121;28;20294;-72
2021/05/08 02:59:31;;;;;;;7.28;6.63;;;;;;;3.82;85.08;99581.06;5092787;28;20180;-72
2021/05/08 03:01:57;;;;;;;8.00;6.90;;;;;;;3.55;86.03;99576.56;5092626;28;20221;-73
2021/05/08 03:04:25;;;;;;;8.15;7.40;;;;;;;3.46;86.77;99566.19;5092408;28;20681;-73
2021/05/08 03:06:51;;;;;;;10.77;8.52;;;;;;;3.50;87.42;99566.94;5092043;28;20207;-73
2021/05/08 03:09:17;;;;;;;9.40;7.88;;;;;;;3.52;86.85;99558.00;5091662;28;20289;-74
2021/05/08 03:11:43;;;;;;;9.30;7.70;;;;;;;3.45;87.27;99553.78;5091979;28;20180;-72
2021/05/08 03:14:09;;;;;;;11.35;8.88;;;;;;;3.52;86.47;99539.34;5092399;28;20650;-74
2021/05/08 03:16:38;;;;;;;10.90;7.97;;;;;;;3.47;86.92;99543.09;5092548;28;20637;-74
2021/05/08 03:19:04;;;;;;;8.68;7.63;;;;;;;3.37;87.43;99545.16;5092413;28;20210;-71
2021/05/08 03:21:32;;;;;;;8.23;7.43;;;;;;;3.39;87.36;99542.44;5092396;28;20238;-72
2021/05/08 03:23:58;;;;;;;9.48;8.55;;;;;;;3.42;87.04;99539.69;5092204;28;20284;-72
2021/05/08 03:26:24;;;;;;;9.30;8.30;;;;;;;3.38;87.26;99541.56;5091493;28;20217;-72
2021/05/08 03:28:51;;;;;;;11.43;8.45;;;;;;;3.22;87.90;99538.50;5091873;28;20584;-73
2021/05/08 03:31:17;;;;;;;10.63;8.07;;;;;;;3.22;88.31;99534.97;5091893;28;20293;-71
2021/05/08 03:33:43;;;;;;;12.48;9.65;;;;;;;3.27;87.90;99536.56;5091795;28;20281;-72
2021/05/08 03:36:09;;;;;;;8.70;7.53;;;;;;;3.21;87.90;99528.78;5092055;28;20695;-73
2021/05/08 03:38:37;;;;;;;10.55;7.57;;;;;;;3.25;87.83;99529.53;5092034;28;20196;-74
2021/05/08 03:41:03;;;;;;;9.93;7.70;;;;;;;3.46;87.16;99523.59;5092018;28;20708;-72
2021/05/08 03:43:30;;;;;;;8.40;7.47;;;;;;;3.49;86.82;99519.97;5091663;28;20191;-72
2021/05/08 03:45:56;;;;;;;10.65;7.50;;;;;;;3.55;86.36;99519.78;5091468;28;20213;-71
2021/05/08 03:48:22;;;;;;;8.68;7.80;;;;;;;3.49;85.86;99518.16;5091795;28;20685;-73
2021/05/08 03:50:48;;;;;;;11.15;7.63;;;;;;;3.22;86.55;99511.88;5091902;28;20191;-72
2021/05/08 03:53:15;;;;;;;8.55;7.65;;;;;;;3.09;87.57;99524.66;5092177;28;20552;-72
2021/05/08 03:55:42;;;;;;;9.00;6.68;;;;;;;3.45;86.80;99534.28;5091605;28;20687;-73
2021/05/08 03:58:08;;;;;;;8.68;6.78;;;;;;;3.74;85.24;99534.25;5091848;28;20426;-72
2021/05/08 04:00:34;;;;;;;9.32;7.80;;;;;;;3.71;84.77;99533.50;5091609;28;20276;-73
2021/05/08 04:03:00;;;;;;;8.73;7.70;;;;;;;3.64;85.01;99523.91;5091399;28;20290;-72
2021/05/08 04:05:26;;;;;;;9.40;7.38;;;;;;;3.62;85.16;99524.00;5091526;28;20188;-72
2021/05/08 04:07:52;;;;;;;10.18;7.82;;;;;;;3.74;84.42;99528.91;5091652;28;20294;-72
2021/05/08 04:10:19;;;;;;;10.07;8.38;;;;;;;3.71;84.04;99531.69;5092048;28;20203;-71
2021/05/08 04:12:46;;;;;;;8.48;7.63;;;;;;;3.68;84.00;99533.56;5091525;28;20191;-72
2021/05/08 04:15:12;;;;;;;11.65;7.95;;;;;;;3.56;84.46;99526.84;5091923;28;20992;-72
2021/05/08 04:17:39;;;;;;;8.40;7.47;;;;;;;3.57;84.65;99533.88;5092404;28;20284;-73
2021/05/08 04:20:06;;;;;;;10.20;7.95;;;;;;;3.48;85.37;99536.84;5095504;28;20553;-71
2021/05/08 04:22:32;;;;;;;9.00;8.00;;;;;;;3.41;85.56;99536.13;5095619;28;20272;-71
2021/05/08 04:24:58;;;;;;;9.07;8.18;;;;;;;3.65;84.85;99537.19;5094940;28;20196;-72
2021/05/08 04:27:24;;;;;;;8.00;7.20;;;;;;;3.74;84.52;99528.06;5094702;28;20218;-72
2021/05/08 04:29:52;;;;;;;8.10;7.25;;;;;;;3.76;84.23;99526.22;5095227;28;20188;-72
2021/05/08 04:32:18;;;;;;;8.70;7.80;;;;;;;3.86;83.74;99519.66;5094712;28;20199;-73
2021/05/08 04:34:44;;;;;;;7.90;7.10;;;;;;;3.90;83.11;99517.78;5094789;28;20283;-72
2021/05/08 04:37:10;;;;;;;15.43;9.40;;;;;;;3.90;82.82;99513.31;5094789;28;20185;-72
2021/05/08 04:39:36;;;;;;;8.35;7.53;;;;;;;3.94;83.13;99517.63;5094578;28;20202;-72
2021/05/08 04:42:03;;;;;;;11.15;8.13;;;;;;;4.13;82.18;99520.56;5094736;28;20228;-72
2021/05/08 04:44:29;;;;;;;10.88;7.88;;;;;;;4.10;81.94;99531.34;5094782;28;20184;-72
2021/05/08 04:46:56;;;;;;;8.20;7.40;;;;;;;4.35;81.14;99526.06;5094963;28;20331;-73
2021/05/08 04:49:22;;;;;;;7.68;6.93;;;;;;;4.16;81.17;99517.81;5094824;28;20188;-73
2021/05/08 04:51:53;;;;;;;12.32;8.98;;;;;;;4.35;81.37;99519.84;5094847;28;20695;-71
2021/05/08 04:54:19;;;;;;;8.40;7.60;;;;;;;4.45;80.60;99509.75;5094542;28;20201;-73
2021/05/08 04:56:45;;;;;;;10.43;8.57;;;;;;;4.60;80.04;99519.88;5094401;28;20224;-71
2021/05/08 04:59:11;;;;;;;9.05;7.57;;;;;;;4.62;79.34;99510.03;5093803;28;20202;-71
2021/05/08 05:01:37;;;;;;;8.00;7.20;;;;;;;4.58;79.82;99511.06;5094265;28;20252;-71
2021/05/08 05:04:04;;;;;;;11.48;8.65;;;;;;;4.73;79.84;99509.66;5083000;28;20284;-71
2021/05/08 05:06:31;;;;;;;10.60;8.75;;;;;;;4.98;78.24;99515.84;5094541;28;20672;-73
2021/05/08 05:08:57;;;;;;;11.45;7.45;;;;;;;5.04;77.73;99509.38;5094587;28;20565;-72
2021/05/08 05:11:23;;;;;;;9.73;8.52;;;;;;;5.24;77.20;99505.97;5094516;28;20186;-71
2021/05/08 05:13:49;;;;;;;9.07;7.93;;;;;;;5.36;76.51;99508.19;5094069;28;20240;-72
2021/05/08 05:16:17;;;;;;;9.73;8.05;;;;;;;5.55;75.99;99511.03;5094537;28;20579;-71
2021/05/08 05:18:43;;;;;;;9.63;8.00;;;;;;;5.91;74.81;99513.16;5094355;28;20278;-72
2021/05/08 05:21:10;;;;;;;7.93;6.82;;;;;;;6.70;71.86;99518.81;5093845;28;20272;-74
2021/05/08 05:23:36;;;;;;;10.50;8.07;;;;;;;6.92;69.88;99517.84;5094168;28;20327;-71
2021/05/08 05:26:03;;;;;;;9.20;8.15;;;;;;;6.34;71.40;99516.78;5092617;28;20192;-73
2021/05/08 05:31:18;;;;;;;8.80;7.03;;;;;;;6.58;71.59;99508.63;5091590;28;20188;-72
2021/05/08 05:33:44;;;;;;;8.50;7.70;;;;;;;6.79;71.13;99506.84;5092549;28;20495;-73
2021/05/08 05:36:11;;;;;;;8.63;6.78;;;;;;;7.07;69.98;99501.97;5092166;28;20204;-71
2021/05/08 05:38:37;;;;;;;8.05;6.95;;;;;;;7.00;69.27;99508.56;5092563;28;20184;-73
2021/05/08 05:41:03;;;;;;;7.30;6.57;;;;;;;6.81;70.10;99515.69;5091927;28;20587;-72
2021/05/08 05:43:30;;;;;;;8.40;7.28;;;;;;;6.92;69.27;99508.03;5093426;28;20180;-73
2021/05/08 05:45:56;;;;;;;8.90;7.45;;;;;;;7.21;69.01;99504.06;5093100;28;20233;-73
2021/05/08 05:48:22;;;;;;;8.63;7.20;;;;;;;7.70;67.14;99506.22;5093310;28;20715;-73
2021/05/08 05:50:48;;;;;;;8.20;7.00;;;;;;;7.79;67.16;99510.28;5093387;28;20233;-74
2021/05/08 05:53:15;;;;;;;8.20;6.97;;;;;;;8.01;66.27;99499.41;5093302;28;20196;-72
2021/05/08 05:55:41;;;;;;;8.48;7.68;;;;;;;8.07;65.96;99494.59;5093301;28;20211;-73
2021/05/08 05:58:07;;;;;;;8.20;7.40;;;;;;;8.19;66.01;99492.25;5093232;28;20183;-72
2021/05/08 06:00:34;;;;;;;14.00;6.45;;;;;;;8.58;64.66;99488.53;5093860;28;20327;-73
2021/05/08 06:03:00;;;;;;;9.68;7.38;;;;;;;8.41;65.00;99495.63;5092756;28;20228;-72
2021/05/08 06:05:26;;;;;;;8.07;6.90;;;;;;;8.21;65.42;99495.69;5093060;28;20236;-73
2021/05/08 06:07:52;;;;;;;8.00;7.18;;;;;;;8.55;64.92;99493.09;5092905;28;20302;-72
2021/05/08 06:10:19;;;;;;;7.40;6.80;;;;;;;8.47;64.59;99481.88;5093427;28;20600;-73
2021/05/08 06:12:45;;;;;;;7.43;6.82;;;;;;;8.52;65.01;99487.91;5093033;28;20197;-72
2021/05/08 06:15:13;;;;;;;7.50;6.80;;;;;;;8.82;64.21;99486.34;5092650;28;20276;-73
2021/05/08 06:17:40;;;;;;;7.55;6.75;;;;;;;9.22;62.89;99495.84;5093588;28;20208;-73
2021/05/08 06:20:07;;;;;;;7.60;6.90;;;;;;;9.52;61.76;99497.78;5093228;28;20196;-73
2021/05/08 06:22:34;;;;;;;9.27;7.20;;;;;;;9.85;60.49;99499.56;5092823;28;20277;-72
2021/05/08 06:25:00;;;;;;;7.72;7.03;;;;;;;9.87;60.37;99503.03;5093033;28;20200;-74
2021/05/08 06:27:27;;;;;;;7.60;6.90;;;;;;;10.03;59.45;99499.34;5092990;28;20201;-73
2021/05/08 06:29:53;;;;;;;7.45;6.75;;;;;;;10.10;59.45;99502.56;5093042;28;20260;-73
2021/05/08 06:32:20;;;;;;;8.52;6.68;;;;;;;10.33;57.94;99503.94;5092822;28;20548;-72
2021/05/08 06:34:46;;;;;;;9.55;7.22;;;;;;;10.50;57.47;99510.19;5092595;28;20277;-72
2021/05/08 06:37:12;;;;;;;9.10;6.47;;;;;;;10.49;56.91;99497.66;5092243;28;20192;-73
2021/05/08 06:39:38;;;;;;;9.63;7.25;;;;;;;10.39;57.76;99506.28;5092325;28;20336;-73
2021/05/08 06:42:04;;;;;;;7.32;6.70;;;;;;;10.53;57.04;99504.59;5092083;28;20414;-75
2021/05/08 06:44:31;;;;;;;7.47;6.70;;;;;;;10.53;57.45;99507.28;5093372;28;20196;-73
2021/05/08 06:46:58;;;;;;;7.10;6.47;;;;;;;10.52;57.38;99508.28;5092932;28;20310;-73
2021/05/08 06:49:24;;;;;;;9.80;8.57;;;;;;;10.49;57.91;99506.63;5093496;28;20203;-73
2021/05/08 06:51:50;;;;;;;8.38;7.30;;;;;;;10.39;58.28;99498.22;5092536;28;20187;-71
2021/05/08 06:54:16;;;;;;;7.65;6.95;;;;;;;10.20;59.20;99494.84;5092680;28;20281;-74
2021/05/08 06:56:43;;;;;;;7.90;7.07;;;;;;;10.31;58.75;99497.81;5093197;28;20222;-72
2021/05/08 06:59:09;;;;;;;7.18;6.50;;;;;;;10.48;57.80;99501.31;5092610;28;20193;-75
2021/05/08 07:01:36;;;;;;;8.27;6.70;;;;;;;10.58;57.07;99503.38;5092396;28;20233;-74
2021/05/08 07:04:03;;;;;;;12.40;7.90;;;;;;;10.76;56.67;99501.41;5092875;28;20190;-74
2021/05/08 07:06:29;;;;;;;9.90;7.30;;;;;;;11.14;55.05;99491.94;5092570;28;20630;-74
2021/05/08 07:08:55;;;;;;;8.50;7.00;;;;;;;11.12;54.82;99486.63;5092181;28;20290;-74
2021/05/08 07:11:22;;;;;;;10.65;7.32;;;;;;;11.38;54.56;99484.16;5092622;28;20197;-73
2021/05/08 07:13:48;;;;;;;9.85;7.38;;;;;;;11.42;54.28;99481.16;5092168;28;20359;-74
2021/05/08 07:16:16;;;;;;;11.68;7.30;;;;;;;11.56;53.72;99487.50;5092780;28;20214;-75
2021/05/08 07:18:43;;;;;;;16.30;13.82;;;;;;;11.74;53.03;99486.31;5091854;28;20188;-73
2021/05/08 07:21:10;;;;;;;8.45;6.82;;;;;;;11.91;50.96;99481.69;5092342;28;20232;-73
2021/05/08 07:23:36;;;;;;;11.57;6.82;;;;;;;11.94;51.05;99478.78;5092350;28;20291;-74
2021/05/08 07:26:02;;;;;;;10.60;7.05;;;;;;;11.86;51.03;99490.03;5091938;28;20219;-74
2021/05/08 07:28:28;;;;;;;6.80;5.55;;;;;;;12.02;50.41;99482.69;5091469;28;20249;-74
2021/05/08 07:30:56;;;;;;;12.25;11.20;;;;;;;12.60;49.44;99475.22;5091648;28;20540;-74
2021/05/08 07:33:23;;;;;;;9.68;5.85;;;;;;;13.17;48.24;99476.69;5092155;28;20204;-71
2021/05/08 07:35:51;;;;;;;9.95;5.65;;;;;;;13.56;46.81;99470.28;5092121;28;20643;-75
2021/05/08 07:38:18;;;;;;;6.18;5.38;;;;;;;13.90;45.33;99469.66;5090723;28;20227;-73
2021/05/08 07:40:48;;;;;;;6.50;5.22;;;;;;;13.97;44.80;99463.69;5091226;28;20310;-73
2021/05/08 07:43:16;;;;;;;6.40;4.60;;;;;;;14.12;43.96;99474.34;5091250;28;20192;-74
2021/05/08 07:45:42;;;;;;;5.72;5.13;;;;;;;14.34;43.30;99473.59;5091784;28;20185;-75
2021/05/08 07:48:08;;;;;;;5.03;4.50;;;;;;;14.32;42.97;99471.00;5091212;28;20224;-73
2021/05/08 07:50:35;;;;;;;4.22;3.80;;;;;;;14.46;42.74;99466.38;5091194;28;20287;-72
2021/05/08 07:53:02;;;;;;;6.45;4.75;;;;;;;14.65;42.37;99465.84;5094057;28;20187;-72
2021/05/08 07:55:28;;;;;;;5.85;4.88;;;;;;;14.57;42.73;99461.88;5095288;28;20334;-73
2021/05/08 07:57:55;;;;;;;9.90;5.15;;;;;;;14.29;43.80;99452.28;5095363;28;20207;-73
2021/05/08 08:00:22;;;;;;;8.95;4.68;;;;;;;14.15;43.86;99461.41;5094807;28;20199;-72
2021/05/08 08:02:48;;;;;;;7.93;4.35;;;;;;;14.25;44.04;99458.91;5095502;28;20185;-72
2021/05/08 08:05:14;;;;;;;4.90;3.65;;;;;;;14.54;43.17;99453.09;5095039;28;20290;-73
2021/05/08 08:07:41;;;;;;;5.07;4.47;;;;;;;14.90;41.95;99451.25;5094887;28;20322;-73
2021/05/08 08:10:09;;;;;;;5.63;4.70;;;;;;;15.21;41.61;99450.56;5095443;28;20287;-71
2021/05/08 08:12:37;;;;;;;4.10;3.80;;;;;;;15.91;40.44;99437.69;5095293;28;20551;-74
2021/05/08 08:15:05;;;;;;;7.18;3.83;;;;;;;15.84;40.55;99439.19;5094808;28;20199;-75
2021/05/08 08:17:32;;;;;;;5.20;3.67;;;;;;;15.87;39.21;99433.50;5094781;28;20236;-73
2021/05/08 08:19:58;;;;;;;11.90;5.05;;;;;;;15.80;39.17;99425.00;5094695;28;20256;-73
2021/05/08 08:22:24;;;;;;;4.00;3.60;;;;;;;15.88;38.51;99426.25;5094965;28;20282;-74
2021/05/08 08:24:50;;;;;;;3.85;3.33;;;;;;;15.77;38.90;99427.97;5094718;28;20211;-71
2021/05/08 08:27:17;;;;;;;3.75;3.25;;;;;;;15.82;38.78;99414.88;5094923;28;20225;-73
2021/05/08 08:29:43;;;;;;;3.28;2.63;;;;;;;15.85;39.18;99421.91;5094803;28;20640;-72
2021/05/08 08:32:09;;;;;;;4.00;2.50;;;;;;;15.75;38.78;99415.53;5094707;28;20208;-73
2021/05/08 08:34:37;;;;;;;5.15;2.95;;;;;;;15.78;38.73;99415.25;5095049;28;20186;-73
2021/05/08 08:37:04;;;;;;;2.90;2.67;;;;;;;15.91;38.85;99425.97;5094470;28;20197;-75
2021/05/08 08:39:30;;;;;;;3.65;3.30;;;;;;;15.97;39.04;99422.75;5095174;28;20185;-73
2021/05/08 08:41:57;;;;;;;3.97;2.80;;;;;;;16.15;39.02;99420.38;5094437;28;20231;-73
2021/05/08 08:44:24;;;;;;;3.70;3.10;;;;;;;15.96;39.32;99416.44;5094617;28;20289;-72
2021/05/08 08:46:51;;;;;;;4.97;3.00;;;;;;;15.97;38.92;99410.03;5094355;28;20300;-73
2021/05/08 08:49:18;;;;;;;4.30;2.95;;;;;;;16.19;39.08;99411.81;5094559;28;20618;-74
2021/05/08 08:51:45;;;;;;;3.50;2.40;;;;;;;16.51;37.60;99415.50;5094056;28;20199;-72
2021/05/08 08:54:13;;;;;;;4.55;4.25;;;;;;;16.77;36.86;99413.25;5094272;28;20215;-73
2021/05/08 08:56:41;;;;;;;3.95;3.55;;;;;;;16.76;37.09;99406.97;5094644;28;20201;-72
2021/05/08 08:59:13;;;;;;;4.45;3.50;;;;;;;16.90;36.01;99394.06;5094709;28;20533;-74
2021/05/08 09:01:42;;;;;;;3.88;2.90;;;;;;;17.02;36.19;99403.84;5093718;28;20191;-72
2021/05/08 09:04:09;;;;;;;3.78;2.95;;;;;;;17.12;35.68;99403.88;5093320;28;20207;-74
2021/05/08 09:06:35;;;;;;;2.50;2.30;;;;;;;17.07;35.66;99404.28;5094310;28;20629;-73
2021/05/08 09:09:01;;;;;;;3.17;2.35;;;;;;;17.58;35.34;99388.91;5093749;28;20226;-73
2021/05/08 09:11:28;;;;;;;2.60;2.40;;;;;;;17.92;34.63;99384.81;5094065;28;20207;-74
2021/05/08 09:14:16;;;;;;;2.65;1.90;;;;;;;17.93;34.19;99382.97;5093990;28;20184;-74
2021/05/08 09:17:08;;;;;;;2.40;2.20;;;;;;;17.86;33.85;99390.88;5093863;28;20313;-72
2021/05/08 09:19:35;;;;;;;3.28;2.25;;;;;;;17.91;33.81;99394.00;5094069;28;20552;-72
2021/05/08 09:22:27;;;;;;;2.42;1.80;;;;;;;18.06;33.83;99383.56;5093739;28;20268;-74
2021/05/08 09:24:55;;;;;;;2.65;2.10;;;;;;;17.77;34.34;99382.63;5093106;28;20275;-73
2021/05/08 09:27:35;;;;;;;4.00;1.98;;;;;;;17.61;34.32;99372.28;5093685;28;20259;-73
2021/05/08 09:30:10;;;;;;;3.38;1.83;;;;;;;17.90;34.02;99375.09;5093357;28;20186;-75
2021/05/08 09:32:41;;;;;;;2.90;1.73;;;;;;;18.45;33.65;99369.94;5093448;28;20226;-73
2021/05/08 09:35:13;;;;;;;2.53;2.10;;;;;;;18.70;33.39;99362.13;5093797;28;20184;-74
2021/05/08 09:37:39;;;;;;;5.55;2.15;;;;;;;18.84;33.25;99369.91;5093910;28;20533;-74
2021/05/08 09:40:29;;;;;;;2.88;1.80;;;;;;;18.62;33.56;99372.94;5092872;28;20257;-73
2021/05/08 09:42:56;;;;;;;2.83;2.00;;;;;;;18.96;33.29;99363.25;5093053;28;20279;-73
2021/05/08 09:45:24;;;;;;;5.18;2.83;;;;;;;19.04;33.27;99364.34;5093003;28;20276;-74
2021/05/08 09:47:51;;;;;;;2.80;2.50;;;;;;;18.81;34.35;99372.91;5092977;28;20301;-74
2021/05/08 09:50:21;;;;;;;2.65;2.35;;;;;;;18.88;34.45;99365.88;5092927;28;20220;-74
2021/05/08 09:52:50;;;;;;;2.47;2.17;;;;;;;18.66;34.63;99358.84;5093332;28;20587;-75
2021/05/08 09:55:17;;;;;;;2.50;2.20;;;;;;;17.47;36.97;99349.03;5092518;28;20290;-72
2021/05/08 09:57:55;;;;;;;3.88;2.05;;;;;;;18.09;36.44;99347.88;5092818;28;20185;-73
2021/05/08 10:00:32;;;;;;;2.80;2.15;;;;;;;18.77;35.16;99346.94;5092879;28;20280;-72
2021/05/08 10:03:09;;;;;;;2.50;1.70;;;;;;;19.18;34.66;99347.53;5093192;28;20644;-75
2021/05/08 10:05:35;;;;;;;2.88;2.40;;;;;;;19.67;34.10;99339.94;5093462;28;20685;-72
2021/05/08 10:08:01;;;;;;;3.42;2.35;;;;;;;19.77;34.14;99339.88;5093498;28;20223;-72
2021/05/08 10:10:27;;;;;;;2.33;2.13;;;;;;;19.31;34.45;99328.94;5093202;28;20208;-73
2021/05/08 10:12:55;;;;;;;2.55;1.90;;;;;;;18.70;35.87;99332.13;5093004;28;20204;-72
2021/05/08 10:15:21;;;;;;;3.03;2.55;;;;;;;18.80;35.47;99327.56;5092832;28;20915;-73
2021/05/08 10:17:50;;;;;;;3.55;1.60;;;;;;;18.63;35.82;99320.09;5092724;28;20189;-75
2021/05/08 10:20:19;;;;;;;2.00;1.90;;;;;;;18.91;35.61;99321.91;5092894;28;20217;-72
2021/05/08 10:22:51;;;;;;;3.30;2.25;;;;;;;19.49;34.59;99320.78;5092496;28;20205;-73
2021/05/08 10:25:18;;;;;;;2.22;2.00;;;;;;;19.44;34.86;99323.09;5092524;28;20193;-74
2021/05/08 10:27:45;;;;;;;2.72;2.28;;;;;;;20.09;33.25;99322.09;5092526;28;20232;-74
2021/05/08 10:30:14;;;;;;;4.15;2.75;;;;;;;19.96;33.77;99319.75;5092496;28;20194;-74
2021/05/08 10:32:44;;;;;;;2.10;1.90;;;;;;;19.61;34.58;99320.56;5092358;28;20202;-74
2021/05/08 10:35:12;;;;;;;2.92;2.63;;;;;;;19.93;34.31;99315.47;5092623;28;20286;-73
2021/05/08 10:37:39;;;;;;;2.05;1.85;;;;;;;19.92;34.16;99316.50;5092084;28;20191;-73
2021/05/08 10:40:16;;;;;;;1.95;1.50;;;;;;;19.63;34.65;99315.78;5092078;28;20313;-76
2021/05/08 10:42:44;;;;;;;2.85;1.35;;;;;;;19.47;33.88;99305.53;5092016;28;20190;-74
2021/05/08 10:45:32;;;;;;;2.15;1.95;;;;;;;19.86;32.92;99306.19;5092423;28;20191;-73
2021/05/08 10:48:12;;;;;;;3.85;1.70;;;;;;;19.85;33.11;99300.84;5088834;28;20300;-73
2021/05/08 10:50:47;;;;;;;1.88;1.70;;;;;;;19.57;33.70;99309.09;5091870;28;20237;-75
2021/05/08 10:53:15;;;;;;;2.13;1.75;;;;;;;19.44;34.14;99297.66;5092240;28;20210;-73
2021/05/08 10:55:53;;;;;;;2.00;1.90;;;;;;;19.15;35.04;99299.56;5091807;28;20203;-74
2021/05/08 10:58:27;;;;;;;3.50;2.00;;;;;;;19.31;35.09;99301.63;5092178;28;20280;-74
2021/05/08 11:00:55;;;;;;;3.72;2.15;;;;;;;19.24;35.87;99299.66;5091976;28;20242;-72
2021/05/08 11:03:24;;;;;;;2.65;1.92;;;;;;;19.46;34.93;99290.19;5091517;28;20214;-73
2021/05/08 11:05:52;;;;;;;32.55;18.95;;;;;;;19.46;35.26;99290.19;5092064;28;20225;-72
2021/05/08 11:08:42;;;;;;;1.92;1.83;;;;;;;19.22;34.67;99288.91;5091900;28;20206;-72
2021/05/08 11:11:10;;;;;;;2.13;1.92;;;;;;;18.85;35.24;99297.94;5092064;28;20704;-74
2021/05/08 11:14:00;;;;;;;2.10;2.00;;;;;;;18.86;35.17;99301.53;5091653;28;20196;-72
2021/05/08 11:16:27;;;;;;;2.65;2.03;;;;;;;18.89;35.39;99296.66;5091054;28;20206;-74
2021/05/08 11:18:54;;;;;;;1.73;1.63;;;;;;;19.01;35.15;99282.81;5092186;28;20646;-73
2021/05/08 11:21:42;;;;;;;3.40;2.00;;;;;;;18.93;35.64;99286.31;5091710;28;20181;-74
2021/05/08 11:24:11;;;;;;;3.83;1.85;;;;;;;19.12;35.15;99274.44;5092287;28;20553;-72
2021/05/08 11:26:39;;;;;;;1.70;1.60;;;;;;;18.96;35.65;99270.47;5092469;28;20212;-74
2021/05/08 11:29:08;;;;;;;2.75;2.55;;;;;;;19.51;35.04;99266.00;5096024;28;20214;-75
2021/05/08 11:31:36;;;;;;;1.85;1.60;;;;;;;20.03;33.93;99262.59;5095832;28;20278;-73
2021/05/08 11:34:12;;;;;;;2.40;2.20;;;;;;;20.42;33.44;99265.81;5095598;28;20290;-73
2021/05/08 11:36:46;;;;;;;2.20;1.70;;;;;;;20.72;32.95;99258.16;5095884;28;20227;-72
2021/05/08 11:39:14;;;;;;;2.72;1.67;;;;;;;20.76;32.91;99262.31;5095428;28;20275;-73
2021/05/08 11:41:41;;;;;;;1.58;1.48;;;;;;;20.93;32.17;99253.13;5095328;28;20265;-75